Time;durP1;ratioP1;P1;durP2;ratioP2;P2;SDS_P1;SDS_P2;PMS_P1;PMS_P2;Temp;Humidity;BMP_temperature;BMP_pressure;BME280_temperature;BME280_humidity;BME280_pressure;Samples;Min_cycle;Max_cycle;Signal;HPM_P1;HPM_P2
2020/12/16 00:03:45;;;;;;;12.50;7.95;;;8.80;92.20;;;;;;10041803;28;20024;-68
2020/12/16 00:08:36;;;;;;;9.32;6.15;;;8.60;92.30;;;;;;10038743;28;20041;-68
2020/12/16 00:13:26;;;;;;;14.80;8.38;;;8.40;92.50;;;;;;10043679;28;20030;-68
2020/12/16 00:18:17;;;;;;;14.18;7.15;;;8.40;92.50;;;;;;10041960;28;20484;-68
2020/12/16 00:23:07;;;;;;;16.52;8.13;;;8.30;92.60;;;;;;10040377;28;20030;-68
2020/12/16 00:27:58;;;;;;;18.92;7.55;;;8.30;92.60;;;;;;10041570;28;20079;-64
2020/12/16 00:32:48;;;;;;;13.63;7.20;;;8.10;92.60;;;;;;10041465;28;20037;-64
2020/12/16 00:37:41;;;;;;;14.90;6.47;;;8.10;92.70;;;;;;10041877;28;20106;-64
2020/12/16 00:42:33;;;;;;;10.18;6.45;;;8.00;92.80;;;;;;10044158;28;20029;-65
2020/12/16 00:47:23;;;;;;;14.40;6.95;;;8.20;92.80;;;;;;10039835;28;22153;-65
2020/12/16 00:52:14;;;;;;;13.23;7.47;;;8.30;92.60;;;;;;10038760;28;20061;-65
2020/12/16 00:57:04;;;;;;;14.05;7.07;;;8.30;92.50;;;;;;10041083;28;20072;-65
2020/12/16 01:01:55;;;;;;;13.00;6.38;;;8.40;92.50;;;;;;10040172;28;20048;-64
2020/12/16 01:06:45;;;;;;;15.30;8.25;;;8.50;92.40;;;;;;10036908;28;20092;-65
2020/12/16 01:11:36;;;;;;;12.10;6.32;;;8.60;92.50;;;;;;10033562;28;20026;-64
2020/12/16 01:16:33;;;;;;;11.52;5.88;;;8.60;92.40;;;;;;10045629;28;20076;-64
2020/12/16 01:21:24;;;;;;;11.38;5.75;;;8.50;92.40;;;;;;10035612;28;20037;-64
2020/12/16 01:26:14;;;;;;;11.30;6.35;;;8.40;92.50;;;;;;10041884;28;20811;-64
2020/12/16 01:31:05;;;;;;;11.13;6.30;;;8.60;92.50;;;;;;10036060;28;20067;-64
2020/12/16 01:35:55;;;;;;;10.98;5.85;;;8.50;92.40;;;;;;10039066;28;20122;-64
2020/12/16 01:40:46;;;;;;;13.10;6.30;;;8.60;92.60;;;;;;10041337;28;20045;-64
2020/12/16 01:45:36;;;;;;;10.57;5.40;;;8.50;92.60;;;;;;10034653;28;20765;-64
2020/12/16 01:50:27;;;;;;;6.90;4.85;;;8.40;92.60;;;;;;10039297;28;20079;-65
2020/12/16 01:55:18;;;;;;;11.13;5.82;;;8.50;92.60;;;;;;10037901;28;20162;-65
2020/12/16 02:00:10;;;;;;;16.08;6.78;;;8.60;92.50;;;;;;10035129;28;20037;-63
2020/12/16 02:05:02;;;;;;;10.90;6.00;;;8.60;92.30;;;;;;10033028;28;20025;-68
2020/12/16 02:09:53;;;;;;;9.25;5.55;;;8.50;92.50;;;;;;10039152;28;20389;-67
2020/12/16 02:14:44;;;;;;;12.65;6.30;;;8.60;92.40;;;;;;10039954;28;20037;-68
2020/12/16 02:19:43;;;;;;;12.25;6.00;;;8.50;92.60;;;;;;10041164;28;20025;-68
2020/12/16 02:24:40;;;;;;;12.52;6.78;;;8.60;92.60;;;;;;10036337;28;20029;-68
2020/12/16 02:29:30;;;;;;;14.20;7.15;;;8.80;92.50;;;;;;10040262;28;20037;-64
2020/12/16 02:34:21;;;;;;;14.20;7.68;;;8.70;92.50;;;;;;10040226;28;20407;-64
2020/12/16 02:39:11;;;;;;;11.68;5.85;;;8.70;92.60;;;;;;10036953;28;20045;-64
2020/12/16 02:44:02;;;;;;;15.65;6.93;;;8.80;92.60;;;;;;10037801;28;20074;-64
2020/12/16 02:48:52;;;;;;;14.77;7.93;;;8.80;92.60;;;;;;10035010;28;20056;-64
2020/12/16 02:53:43;;;;;;;12.10;6.50;;;8.80;92.50;;;;;;10041583;28;20128;-64
2020/12/16 02:58:34;;;;;;;14.43;6.07;;;8.80;92.60;;;;;;10035583;28;20515;-66
2020/12/16 03:03:24;;;;;;;10.93;6.65;;;8.80;92.40;;;;;;10033591;28;20024;-64
2020/12/16 03:08:15;;;;;;;15.95;6.50;;;8.90;92.30;;;;;;10026892;28;20033;-64
2020/12/16 03:13:06;;;;;;;11.07;6.47;;;8.80;92.40;;;;;;10032701;28;20037;-64
2020/12/16 03:17:56;;;;;;;11.88;7.45;;;8.80;92.40;;;;;;10033175;28;20033;-64
2020/12/16 03:22:47;;;;;;;11.75;6.15;;;8.90;92.30;;;;;;10042161;28;20048;-64
2020/12/16 03:27:38;;;;;;;13.60;6.80;;;9.00;92.20;;;;;;10045142;28;20352;-65
2020/12/16 03:32:28;;;;;;;12.55;5.80;;;9.00;92.20;;;;;;10039649;28;20092;-63
2020/12/16 03:37:19;;;;;;;13.65;7.40;;;8.90;92.30;;;;;;10044962;28;20046;-64
2020/12/16 03:42:10;;;;;;;10.93;6.45;;;8.90;92.20;;;;;;10041856;28;20038;-65
2020/12/16 03:47:01;;;;;;;11.57;6.22;;;8.90;92.30;;;;;;10044326;28;20516;-65
2020/12/16 03:51:53;;;;;;;12.25;5.70;;;8.90;92.20;;;;;;10034839;28;20064;-65
2020/12/16 03:56:44;;;;;;;11.45;6.82;;;8.90;92.30;;;;;;10038508;28;20048;-65
2020/12/16 04:01:34;;;;;;;12.85;6.68;;;9.00;92.10;;;;;;10045687;28;20403;-65
2020/12/16 04:06:25;;;;;;;10.02;5.65;;;8.80;92.20;;;;;;10040313;28;20065;-67
2020/12/16 04:11:18;;;;;;;9.15;5.10;;;8.80;92.30;;;;;;10046920;28;20030;-68
2020/12/16 04:16:12;;;;;;;8.80;5.30;;;8.90;92.10;;;;;;10040641;28;20102;-69
2020/12/16 04:21:07;;;;;;;7.78;5.00;;;8.80;92.20;;;;;;10037398;28;20026;-68
2020/12/16 04:25:57;;;;;;;6.45;4.78;;;8.80;92.20;;;;;;10042858;28;20080;-68
2020/12/16 04:30:48;;;;;;;6.07;4.13;;;8.80;92.10;;;;;;10040401;28;20099;-69
2020/12/16 04:35:38;;;;;;;7.05;4.93;;;8.80;92.20;;;;;;10042134;28;20056;-68
2020/12/16 04:40:29;;;;;;;7.55;5.47;;;8.70;92.10;;;;;;10042694;28;20400;-69
2020/12/16 04:45:20;;;;;;;9.10;5.20;;;8.70;92.20;;;;;;10044557;28;20038;-69
2020/12/16 04:50:10;;;;;;;7.13;4.93;;;8.70;92.10;;;;;;10040800;28;20415;-68
2020/12/16 04:55:01;;;;;;;7.70;5.22;;;8.80;92.00;;;;;;10040648;28;20525;-68
2020/12/16 04:59:56;;;;;;;8.07;5.32;;;8.80;91.90;;;;;;10039389;28;20030;-68
2020/12/16 05:04:46;;;;;;;9.40;5.20;;;8.70;91.90;;;;;;10043566;28;20025;-69
2020/12/16 05:09:46;;;;;;;7.95;4.72;;;8.70;91.90;;;;;;10042604;28;20065;-67
2020/12/16 05:14:37;;;;;;;7.43;5.07;;;8.70;91.80;;;;;;10039182;28;20230;-68
2020/12/16 05:19:38;;;;;;;9.05;5.38;;;8.70;91.90;;;;;;10037213;28;20037;-64
2020/12/16 05:24:28;;;;;;;10.02;6.72;;;8.60;91.80;;;;;;10038313;28;20152;-64
2020/12/16 05:29:26;;;;;;;8.07;5.68;;;8.60;91.90;;;;;;10044793;28;20030;-64
2020/12/16 05:34:18;;;;;;;9.57;5.85;;;8.50;91.90;;;;;;10035132;28;20044;-64
2020/12/16 05:39:10;;;;;;;8.32;5.50;;;8.50;91.80;;;;;;10037897;28;20133;-64
2020/12/16 05:44:18;;;;;;;7.47;4.70;;;8.40;91.70;;;;;;10036202;28;20481;-64
2020/12/16 05:49:29;;;;;;;9.38;5.40;;;8.50;91.60;;;;;;10040881;28;20041;-64
2020/12/16 05:54:19;;;;;;;7.57;3.78;;;8.50;91.60;;;;;;10043503;28;20372;-69
2020/12/16 05:59:10;;;;;;;5.68;4.30;;;8.60;91.60;;;;;;10040628;28;20040;-68
2020/12/16 06:04:02;;;;;;;6.05;3.88;;;8.60;91.60;;;;;;10037880;28;20029;-68
2020/12/16 06:08:53;;;;;;;4.65;3.85;;;8.60;91.70;;;;;;10039162;28;20409;-69
2020/12/16 06:13:46;;;;;;;6.63;4.53;;;8.70;91.60;;;;;;10036791;28;20044;-69
2020/12/16 06:18:40;;;;;;;6.00;3.72;;;8.70;91.70;;;;;;10041270;28;20061;-68
2020/12/16 06:23:33;;;;;;;6.80;3.78;;;8.60;91.60;;;;;;10035407;28;20026;-68
2020/12/16 06:28:25;;;;;;;7.03;4.10;;;8.70;91.60;;;;;;10036630;28;20498;-68
2020/12/16 06:33:26;;;;;;;7.80;4.80;;;8.60;91.60;;;;;;10038791;28;20117;-69
2020/12/16 06:38:22;;;;;;;6.53;4.25;;;8.60;91.70;;;;;;10034130;28;20108;-69
2020/12/16 06:43:31;;;;;;;11.20;5.55;;;8.60;91.70;;;;;;10038324;28;20450;-69
2020/12/16 06:48:41;;;;;;;9.10;5.20;;;8.60;91.60;;;;;;10036553;28;20041;-70
2020/12/16 06:53:32;;;;;;;10.18;5.75;;;8.40;91.60;;;;;;10037186;28;20116;-69
2020/12/16 06:58:39;;;;;;;8.02;4.70;;;8.50;91.80;;;;;;10035512;28;20476;-69
2020/12/16 07:03:32;;;;;;;9.93;6.28;;;8.60;91.60;;;;;;10038859;28;20076;-69
2020/12/16 07:08:29;;;;;;;7.13;4.68;;;8.60;91.70;;;;;;10034480;28;20068;-69
2020/12/16 07:13:21;;;;;;;7.95;4.80;;;8.60;91.60;;;;;;10035112;28;20033;-69
2020/12/16 07:18:29;;;;;;;9.65;4.75;;;8.60;91.60;;;;;;10036624;28;20067;-69
2020/12/16 07:23:19;;;;;;;8.95;4.80;;;8.70;91.60;;;;;;10040347;28;20037;-68
2020/12/16 07:28:12;;;;;;;6.65;4.57;;;8.70;91.60;;;;;;10035794;28;20029;-69
2020/12/16 07:33:21;;;;;;;5.85;3.65;;;8.70;91.50;;;;;;10038742;28;20395;-66
2020/12/16 07:38:12;;;;;;;10.38;4.70;;;8.90;91.50;;;;;;10058823;28;20030;-65
2020/12/16 07:43:03;;;;;;;8.77;4.80;;;8.90;91.40;;;;;;10034480;28;20041;-63
2020/12/16 07:47:55;;;;;;;9.77;5.07;;;8.80;91.50;;;;;;10037437;28;20072;-63
2020/12/16 07:52:52;;;;;;;10.88;5.40;;;8.90;91.50;;;;;;10036538;28;20160;-65
2020/12/16 07:57:43;;;;;;;8.95;5.25;;;8.90;91.40;;;;;;10034030;28;20400;-65
2020/12/16 08:02:33;;;;;;;11.73;6.20;;;9.00;91.30;;;;;;10032914;28;20045;-64
2020/12/16 08:07:24;;;;;;;7.13;5.20;;;9.00;91.30;;;;;;10044170;28;20439;-63
2020/12/16 08:12:17;;;;;;;8.57;5.35;;;9.00;91.40;;;;;;10040752;28;20041;-63
2020/12/16 08:17:09;;;;;;;8.02;5.68;;;9.00;91.50;;;;;;10046296;28;20056;-64
2020/12/16 08:22:15;;;;;;;7.05;4.65;;;9.10;91.40;;;;;;10042322;28;20083;-65
2020/12/16 08:27:06;;;;;;;;;;;9.20;91.40;;;;;;10055440;28;20064;-65
2020/12/16 08:31:58;;;;;;;6.70;4.90;;;9.20;91.30;;;;;;10043527;28;20502;-65
2020/12/16 08:36:51;;;;;;;7.25;4.40;;;9.30;91.20;;;;;;10044997;28;20056;-66
2020/12/16 08:41:43;;;;;;;7.03;4.97;;;9.30;91.20;;;;;;10039867;28;20038;-65
2020/12/16 08:46:39;;;;;;;8.63;5.07;;;9.30;91.10;;;;;;10042058;28;20034;-65
2020/12/16 08:51:39;;;;;;;10.23;5.30;;;9.20;91.20;;;;;;10040682;28;20033;-65
2020/12/16 08:56:42;;;;;;;8.32;5.55;;;9.30;91.20;;;;;;10039784;28;20042;-63
2020/12/16 09:01:34;;;;;;;7.88;4.57;;;9.30;91.30;;;;;;10036379;28;20022;-70
2020/12/16 09:06:24;;;;;;;6.55;4.40;;;9.40;91.50;;;;;;10042287;28;20061;-71
2020/12/16 09:11:22;;;;;;;8.10;4.72;;;9.60;91.00;;;;;;10039990;28;20268;-71
2020/12/16 09:16:24;;;;;;;5.93;3.88;;;9.50;90.90;;;;;;10044574;28;20029;-68
2020/12/16 09:21:34;;;;;;;10.05;5.03;;;9.50;90.90;;;;;;10044604;28;20114;-73
2020/12/16 09:26:44;;;;;;;7.20;4.40;;;9.60;90.80;;;;;;10036974;28;20033;-70
2020/12/16 09:31:34;;;;;;;6.45;4.40;;;9.70;90.90;;;;;;10038272;28;20029;-67
2020/12/16 09:36:29;;;;;;;6.88;4.15;;;10.00;90.80;;;;;;10039285;28;20025;-69
2020/12/16 09:41:19;;;;;;;8.13;4.05;;;10.10;90.60;;;;;;10037467;28;20116;-70
2020/12/16 09:46:20;;;;;;;5.00;3.55;;;9.90;90.60;;;;;;10039083;28;20492;-68
2020/12/16 09:51:15;;;;;;;4.72;3.90;;;10.10;90.70;;;;;;10041384;28;20376;-71
2020/12/16 09:56:06;;;;;;;6.45;3.67;;;10.20;90.70;;;;;;10035676;28;20036;-65
2020/12/16 10:00:57;;;;;;;4.85;3.60;;;10.40;90.70;;;;;;10040249;28;20037;-70
2020/12/16 10:05:47;;;;;;;5.45;4.18;;;10.30;90.60;;;;;;10036435;28;20040;-65
2020/12/16 10:10:42;;;;;;;5.75;3.83;;;10.30;90.60;;;;;;10041859;28;20030;-65
2020/12/16 10:15:33;;;;;;;6.13;4.70;;;10.10;90.80;;;;;;10040302;28;20569;-63
2020/12/16 10:20:23;;;;;;;6.10;4.22;;;10.10;90.80;;;;;;10040721;28;20038;-66
2020/12/16 10:25:14;;;;;;;8.90;4.30;;;10.10;90.80;;;;;;10039552;28;20037;-65
2020/12/16 10:30:06;;;;;;;7.68;4.75;;;10.30;90.70;;;;;;10037196;28;20050;-65
2020/12/16 10:34:57;;;;;;;12.93;4.95;;;10.40;90.50;;;;;;10039863;28;20037;-64
2020/12/16 10:39:48;;;;;;;9.15;5.47;;;10.60;90.40;;;;;;10034857;28;20045;-65
2020/12/16 10:44:39;;;;;;;8.07;4.47;;;10.70;90.40;;;;;;10036251;28;20029;-65
2020/12/16 10:49:30;;;;;;;8.40;5.20;;;10.70;90.30;;;;;;10040809;28;20067;-65
2020/12/16 10:54:21;;;;;;;8.43;5.70;;;10.60;90.40;;;;;;10044142;28;20064;-65
2020/12/16 10:59:12;;;;;;;10.73;5.72;;;10.60;90.40;;;;;;10044824;28;20041;-65
2020/12/16 11:04:07;;;;;;;7.00;4.50;;;10.60;90.40;;;;;;10040399;28;20451;-66
2020/12/16 11:08:57;;;;;;;6.90;4.88;;;10.70;90.30;;;;;;10037119;28;20088;-66
2020/12/16 11:13:49;;;;;;;9.63;5.78;;;10.80;90.30;;;;;;10040000;28;20026;-66
2020/12/16 11:19:38;;;;;;;7.18;5.30;;;10.90;90.10;;;;;;10042811;28;20030;-66
2020/12/16 11:24:04;;;;;;;9.00;5.85;;;11.00;90.10;;;;;;10034473;28;20037;-66
2020/12/16 11:28:55;;;;;;;6.55;4.90;;;11.10;89.90;;;;;;10038889;28;20116;-67
2020/12/16 11:33:45;;;;;;;8.63;5.53;;;11.30;89.70;;;;;;10041316;28;20033;-67
2020/12/16 11:38:36;;;;;;;9.35;5.75;;;11.40;89.40;;;;;;10032957;28;20464;-67
2020/12/16 11:43:27;;;;;;;7.13;4.85;;;11.40;89.50;;;;;;10051235;28;20030;-67
2020/12/16 11:48:17;;;;;;;6.88;4.97;;;11.40;89.20;;;;;;10048146;28;20049;-67
2020/12/16 11:53:08;;;;;;;10.15;5.43;;;11.40;89.20;;;;;;10049272;28;20096;-69
2020/12/16 11:57:58;;;;;;;9.45;6.03;;;11.40;89.30;;;;;;10045948;28;20060;-69
2020/12/16 12:02:52;;;;;;;8.65;5.47;;;11.50;88.80;;;;;;10040981;28;20038;-69
2020/12/16 12:07:43;;;;;;;6.53;4.63;;;11.40;89.00;;;;;;10044066;28;20030;-73
2020/12/16 12:12:34;;;;;;;8.65;6.22;;;11.60;88.60;;;;;;10042124;28;20042;-74
2020/12/16 12:17:28;;;;;;;8.27;4.88;;;11.60;88.20;;;;;;10049462;28;20287;-78
2020/12/16 12:22:19;;;;;;;9.48;6.05;;;11.50;88.30;;;;;;10040199;28;20036;-75
2020/12/16 12:27:10;;;;;;;8.90;5.30;;;11.60;88.30;;;;;;10046095;28;20116;-77
2020/12/16 12:32:01;;;;;;;8.48;5.70;;;11.80;88.60;;;;;;10050622;28;20562;-71
2020/12/16 12:36:51;;;;;;;7.22;5.28;;;12.00;87.60;;;;;;10040679;28;20480;-73
2020/12/16 12:41:42;;;;;;;7.75;5.07;;;11.90;87.40;;;;;;10034326;28;20474;-74
2020/12/16 12:46:33;;;;;;;10.52;5.28;;;12.00;87.20;;;;;;10034505;28;20033;-68
2020/12/16 12:51:24;;;;;;;7.78;4.80;;;11.90;87.70;;;;;;10034061;28;20076;-70
2020/12/16 12:56:29;;;;;;;6.70;5.07;;;12.00;87.30;;;;;;9962404;28;20513;-70
2020/12/16 13:01:20;;;;;;;8.48;4.78;;;12.10;87.20;;;;;;9954077;28;20054;-69
2020/12/16 13:06:10;;;;;;;7.38;5.47;;;12.10;87.00;;;;;;9959646;28;20085;-69
2020/12/16 13:11:01;;;;;;;8.40;5.35;;;12.10;86.70;;;;;;9969796;28;20322;-71
2020/12/16 13:15:53;;;;;;;9.98;4.82;;;12.10;86.30;;;;;;9975066;28;20049;-69
2020/12/16 13:20:44;;;;;;;10.68;4.75;;;11.80;86.60;;;;;;9957075;28;20050;-70
2020/12/16 13:25:34;;;;;;;6.65;4.72;;;11.70;86.60;;;;;;9954980;28;20049;-70
2020/12/16 13:30:25;;;;;;;11.35;6.35;;;11.60;86.50;;;;;;9962885;28;20467;-69
2020/12/16 13:35:17;;;;;;;9.75;5.35;;;11.50;86.50;;;;;;10041020;28;20061;-70
2020/12/16 13:40:08;;;;;;;7.63;5.40;;;11.40;86.40;;;;;;10034971;28;20030;-71
2020/12/16 13:44:58;;;;;;;7.88;4.88;;;11.40;86.50;;;;;;10039178;28;20028;-69
2020/12/16 13:49:49;;;;;;;11.57;5.07;;;11.30;86.60;;;;;;10039887;28;20060;-70
2020/12/16 13:54:41;;;;;;;10.73;6.05;;;11.30;86.60;;;;;;10036519;28;20431;-72
2020/12/16 13:59:32;;;;;;;7.85;4.60;;;11.30;86.60;;;;;;10034608;28;20517;-70
2020/12/16 14:04:22;;;;;;;9.32;5.40;;;11.20;86.60;;;;;;10035845;28;20377;-68
2020/12/16 14:09:13;;;;;;;9.77;5.55;;;11.20;86.50;;;;;;10044143;28;20488;-71
2020/12/16 14:14:03;;;;;;;9.43;6.05;;;11.20;86.60;;;;;;10038078;28;20038;-71
2020/12/16 14:18:54;;;;;;;8.50;5.35;;;11.20;86.70;;;;;;10041858;28;20505;-71
2020/12/16 14:23:46;;;;;;;14.65;6.72;;;11.20;86.60;;;;;;10044490;28;20031;-69
2020/12/16 14:28:37;;;;;;;8.20;5.78;;;11.30;87.20;;;;;;10044781;28;20368;-72
2020/12/16 14:33:33;;;;;;;10.48;7.03;;;11.30;86.70;;;;;;10038546;28;20021;-74
2020/12/16 14:38:23;;;;;;;10.60;6.93;;;11.30;87.00;;;;;;10036959;28;20048;-72
2020/12/16 14:43:14;;;;;;;10.10;5.82;;;11.30;87.10;;;;;;10032088;28;20507;-70
2020/12/16 14:48:04;;;;;;;10.90;5.47;;;11.20;87.20;;;;;;10032522;28;20037;-70
2020/12/16 14:52:55;;;;;;;11.32;6.43;;;11.10;87.40;;;;;;10035691;28;20045;-71
2020/12/16 14:57:48;;;;;;;12.43;6.32;;;11.00;87.60;;;;;;10065317;28;20033;-70
2020/12/16 15:02:38;;;;;;;9.02;6.32;;;10.90;87.80;;;;;;10033798;28;20033;-72
2020/12/16 15:07:29;;;;;;;13.05;7.90;;;10.90;87.90;;;;;;10035535;28;20080;-72
2020/12/16 15:12:19;;;;;;;13.70;7.30;;;10.80;87.70;;;;;;10035278;28;20037;-71
2020/12/16 15:17:10;;;;;;;10.82;7.32;;;10.70;87.80;;;;;;10037651;28;20155;-77
2020/12/16 15:22:01;;;;;;;8.75;5.97;;;10.60;87.90;;;;;;10033478;28;20559;-69
2020/12/16 15:26:51;;;;;;;13.18;7.95;;;10.60;88.10;;;;;;10006769;28;20178;-71
2020/12/16 15:31:43;;;;;;;11.35;7.47;;;10.50;88.30;;;;;;10027570;28;20045;-73
2020/12/16 15:36:34;;;;;;;11.77;7.63;;;10.50;88.40;;;;;;10053818;28;20061;-66
2020/12/16 15:41:24;;;;;;;10.93;7.90;;;10.40;88.60;;;;;;10035895;28;20061;-62
2020/12/16 15:46:15;;;;;;;12.88;7.10;;;10.30;88.60;;;;;;10036721;28;20034;-73
2020/12/16 15:51:08;;;;;;;14.10;8.23;;;10.30;88.80;;;;;;10035771;28;20452;-72
2020/12/16 15:55:59;;;;;;;11.85;7.35;;;10.20;89.00;;;;;;10028916;28;20349;-69
2020/12/16 16:00:50;;;;;;;13.40;8.32;;;10.20;89.20;;;;;;10034391;28;20030;-71
2020/12/16 16:05:40;;;;;;;11.60;8.32;;;10.10;89.20;;;;;;10034241;28;20032;-67
2020/12/16 16:10:31;;;;;;;16.52;9.40;;;10.10;89.40;;;;;;10038231;28;20033;-69
2020/12/16 16:15:21;;;;;;;14.95;9.02;;;10.00;89.50;;;;;;10033080;28;20044;-73
2020/12/16 16:20:12;;;;;;;14.70;10.15;;;10.00;89.70;;;;;;10037427;28;20037;-67
2020/12/16 16:25:05;;;;;;;15.93;8.85;;;10.00;90.20;;;;;;10039361;28;20140;-70
2020/12/16 16:29:55;;;;;;;15.60;9.48;;;10.00;90.00;;;;;;10038540;28;20046;-71
2020/12/16 16:34:46;;;;;;;10.90;8.90;;;9.90;90.00;;;;;;10037050;28;20500;-70
2020/12/16 16:39:38;;;;;;;16.65;10.68;;;9.90;90.00;;;;;;10035082;28;20103;-69
2020/12/16 16:44:29;;;;;;;13.32;9.07;;;9.90;90.10;;;;;;10041284;28;20045;-72
2020/12/16 16:49:20;;;;;;;14.38;8.10;;;9.80;90.10;;;;;;10034426;28;20045;-70
2020/12/16 16:54:12;;;;;;;13.40;8.48;;;9.80;90.20;;;;;;10033724;28;20037;-69
2020/12/16 16:59:03;;;;;;;10.23;7.20;;;9.80;90.20;;;;;;10040589;28;20045;-70
2020/12/16 17:03:54;;;;;;;12.13;7.82;;;9.80;90.30;;;;;;10039663;28;20057;-70
2020/12/16 17:08:45;;;;;;;10.63;8.40;;;9.70;90.30;;;;;;10041540;28;20429;-70
2020/12/16 17:13:35;;;;;;;11.85;7.78;;;9.80;90.40;;;;;;10039861;28;20021;-70
2020/12/16 17:18:26;;;;;;;15.45;9.95;;;9.70;90.40;;;;;;10041005;28;20112;-71
2020/12/16 17:23:17;;;;;;;10.05;7.40;;;9.70;90.40;;;;;;10044603;28;20404;-69
2020/12/16 17:28:07;;;;;;;11.63;8.30;;;9.70;90.50;;;;;;10043624;28;20026;-74
2020/12/16 17:32:58;;;;;;;11.77;7.63;;;9.60;90.50;;;;;;10033401;28;20038;-70
2020/12/16 17:37:48;;;;;;;15.60;7.53;;;9.60;90.50;;;;;;10035958;28;21346;-72
2020/12/16 17:42:39;;;;;;;13.23;7.07;;;9.60;90.60;;;;;;10036081;28;20495;-70
2020/12/16 17:47:30;;;;;;;11.38;7.05;;;9.50;90.60;;;;;;10004534;28;20049;-69
2020/12/16 17:52:20;;;;;;;11.63;7.47;;;9.50;90.70;;;;;;10032934;28;20577;-70
2020/12/16 17:57:15;;;;;;;13.00;7.32;;;9.50;90.70;;;;;;10031505;28;20539;-63
2020/12/16 18:02:05;;;;;;;13.05;7.10;;;9.50;90.80;;;;;;10040090;28;20129;-64
2020/12/16 18:06:56;;;;;;;11.95;7.00;;;9.50;90.90;;;;;;10038080;28;20030;-64
2020/12/16 18:11:47;;;;;;;10.65;7.97;;;9.50;90.90;;;;;;10031880;28;20488;-63
2020/12/16 18:16:38;;;;;;;12.50;7.00;;;9.50;91.00;;;;;;10033061;28;20084;-65
2020/12/16 18:21:28;;;;;;;10.88;7.50;;;9.60;91.00;;;;;;10031847;28;20412;-63
2020/12/16 18:26:19;;;;;;;12.43;7.75;;;9.80;90.90;;;;;;10040777;28;20036;-63
2020/12/16 18:31:10;;;;;;;12.68;8.25;;;9.80;90.90;;;;;;10035615;28;20057;-64
2020/12/16 18:36:01;;;;;;;11.55;7.38;;;9.80;90.90;;;;;;10041950;28;20031;-65
2020/12/16 18:40:53;;;;;;;12.13;8.00;;;9.90;90.90;;;;;;10037610;28;20618;-65
2020/12/16 18:45:43;;;;;;;13.13;7.45;;;10.00;90.70;;;;;;10037451;28;20316;-64
2020/12/16 18:50:34;;;;;;;14.50;7.90;;;9.70;91.00;;;;;;10037827;28;20076;-66
2020/12/16 18:55:25;;;;;;;16.05;8.38;;;9.50;91.30;;;;;;10034240;28;20399;-66
2020/12/16 19:00:16;;;;;;;18.65;10.00;;;9.30;91.60;;;;;;10036108;28;20095;-67
2020/12/16 19:05:08;;;;;;;15.43;9.38;;;9.30;91.70;;;;;;10034270;28;20033;-69
2020/12/16 19:09:59;;;;;;;15.70;10.25;;;9.20;91.80;;;;;;10033969;28;20040;-69
2020/12/16 19:14:50;;;;;;;15.57;7.50;;;9.10;92.00;;;;;;10035893;28;20037;-67
2020/12/16 19:19:41;;;;;;;13.93;8.60;;;9.10;92.00;;;;;;10035295;28;20022;-69
2020/12/16 19:24:32;;;;;;;11.90;8.48;;;9.10;92.00;;;;;;10038461;28;20021;-69
2020/12/16 19:29:22;;;;;;;16.35;8.02;;;9.00;92.00;;;;;;10035129;28;20471;-68
2020/12/16 19:34:14;;;;;;;12.48;7.93;;;9.10;92.10;;;;;;10033709;28;20041;-67
2020/12/16 19:39:05;;;;;;;13.18;7.97;;;9.00;91.90;;;;;;10034392;28;20495;-68
2020/12/16 19:43:56;;;;;;;12.52;7.82;;;8.90;92.00;;;;;;10036869;28;20041;-66
2020/12/16 19:48:47;;;;;;;9.57;6.72;;;8.90;91.90;;;;;;10039840;28;20038;-68
2020/12/16 19:53:38;;;;;;;9.48;7.13;;;9.00;91.70;;;;;;10034269;28;20033;-66
2020/12/16 19:58:29;;;;;;;11.43;6.68;;;8.90;91.70;;;;;;10031540;28;20048;-68
2020/12/16 20:03:20;;;;;;;10.55;7.30;;;8.90;91.60;;;;;;10039926;28;20412;-68
2020/12/16 20:08:10;;;;;;;12.27;7.07;;;8.90;91.60;;;;;;10043633;28;20095;-63
2020/12/16 20:13:03;;;;;;;11.93;7.20;;;8.90;91.60;;;;;;10042287;28;20270;-68
2020/12/16 20:17:53;;;;;;;11.40;8.10;;;8.90;91.50;;;;;;10043484;28;20522;-67
2020/12/16 20:22:49;;;;;;;11.10;7.22;;;8.90;91.50;;;;;;10038759;28;20037;-67
2020/12/16 20:27:40;;;;;;;11.30;7.00;;;8.90;91.60;;;;;;10046012;28;20507;-64
2020/12/16 20:32:37;;;;;;;15.05;8.15;;;8.90;91.50;;;;;;10041247;28;20041;-63
2020/12/16 20:37:27;;;;;;;10.73;8.30;;;8.90;91.50;;;;;;10037014;28;20026;-71
2020/12/16 20:42:18;;;;;;;11.80;7.43;;;9.00;91.50;;;;;;10037684;28;20037;-71
2020/12/16 20:47:08;;;;;;;14.07;6.60;;;9.00;91.40;;;;;;10034054;28;20388;-67
2020/12/16 20:51:59;;;;;;;11.20;7.20;;;8.90;91.40;;;;;;10034452;28;20075;-63
2020/12/16 20:56:51;;;;;;;11.73;6.65;;;8.90;91.50;;;;;;10039427;28;20543;-62
2020/12/16 21:01:42;;;;;;;13.02;6.82;;;8.90;91.40;;;;;;10030424;28;20460;-62
2020/12/16 21:06:34;;;;;;;9.30;6.38;;;8.90;91.40;;;;;;10034092;28;20029;-63
2020/12/16 21:11:26;;;;;;;9.23;6.65;;;9.00;91.40;;;;;;10035901;28;20033;-63
2020/12/16 21:16:18;;;;;;;8.82;5.15;;;9.00;91.30;;;;;;10041869;28;20083;-68
2020/12/16 21:21:09;;;;;;;9.68;5.40;;;9.10;91.30;;;;;;10040016;28;20037;-65
2020/12/16 21:25:59;;;;;;;7.47;4.78;;;9.10;91.30;;;;;;10046437;28;20563;-65
2020/12/16 21:30:50;;;;;;;7.45;5.15;;;9.20;91.40;;;;;;10046625;28;20041;-68
2020/12/16 21:35:40;;;;;;;10.80;6.75;;;9.20;91.30;;;;;;10039569;28;20026;-65
2020/12/16 21:40:31;;;;;;;7.68;5.13;;;9.20;91.30;;;;;;10034799;28;20045;-68
2020/12/16 21:45:22;;;;;;;7.15;5.03;;;9.20;91.30;;;;;;10040495;28;20048;-68
2020/12/16 21:50:13;;;;;;;7.35;6.00;;;9.20;91.40;;;;;;10047139;28;20073;-68
2020/12/16 21:55:05;;;;;;;10.18;5.45;;;9.20;91.30;;;;;;10049472;28;20437;-68
2020/12/16 21:59:56;;;;;;;8.80;5.07;;;9.10;91.30;;;;;;10044189;28;20037;-67
2020/12/16 22:04:46;;;;;;;11.57;6.28;;;9.20;91.20;;;;;;10044198;28;20391;-67
2020/12/16 22:09:37;;;;;;;10.20;5.80;;;9.20;91.30;;;;;;10046765;28;20034;-67
2020/12/16 22:14:27;;;;;;;8.60;5.25;;;9.20;91.10;;;;;;10049541;28;20507;-68
2020/12/16 22:19:18;;;;;;;7.60;5.53;;;9.10;91.10;;;;;;10046745;28;20541;-66
2020/12/16 22:24:08;;;;;;;8.93;5.63;;;9.10;91.10;;;;;;10043745;28;20116;-67
2020/12/16 22:28:59;;;;;;;9.10;5.20;;;9.00;91.10;;;;;;10040758;28;20029;-67
2020/12/16 22:33:50;;;;;;;10.38;5.82;;;9.00;91.10;;;;;;10046537;28;20480;-67
2020/12/16 22:38:41;;;;;;;10.07;6.82;;;9.00;91.10;;;;;;10039332;28;20088;-66
2020/12/16 22:43:32;;;;;;;12.30;6.57;;;8.90;91.10;;;;;;10038004;28;20038;-66
2020/12/16 22:48:23;;;;;;;9.93;5.95;;;9.00;91.00;;;;;;10031536;28;20041;-66
2020/12/16 22:53:14;;;;;;;9.40;5.68;;;9.00;91.00;;;;;;10040352;28;20736;-66
2020/12/16 22:58:05;;;;;;;12.13;6.78;;;9.00;91.00;;;;;;10049639;28;20025;-67
2020/12/16 23:02:55;;;;;;;11.30;6.30;;;9.00;91.00;;;;;;10051332;28;20049;-66
2020/12/16 23:07:46;;;;;;;8.18;5.97;;;9.00;90.90;;;;;;10049402;28;20167;-66
2020/12/16 23:12:37;;;;;;;9.15;5.60;;;9.00;90.90;;;;;;10049560;28;20065;-67
2020/12/16 23:17:27;;;;;;;9.25;6.05;;;9.00;91.00;;;;;;10048799;28;20068;-67
2020/12/16 23:22:18;;;;;;;12.18;6.30;;;8.90;90.90;;;;;;10032790;28;20022;-67
2020/12/16 23:27:10;;;;;;;10.50;5.95;;;8.90;90.90;;;;;;10034401;28;20033;-68
2020/12/16 23:32:00;;;;;;;8.85;5.32;;;8.80;90.80;;;;;;10040892;28;20079;-67
2020/12/16 23:36:51;;;;;;;9.52;5.55;;;8.80;90.80;;;;;;10038538;28;20103;-67
2020/12/16 23:41:42;;;;;;;11.25;7.78;;;8.70;90.80;;;;;;10039326;28;20037;-66
2020/12/16 23:46:38;;;;;;;8.65;6.03;;;8.60;90.70;;;;;;10044230;28;20111;-66
2020/12/16 23:51:28;;;;;;;10.90;6.10;;;8.60;90.70;;;;;;10044950;28;20021;-65
2020/12/16 23:56:19;;;;;;;8.25;5.65;;;8.50;90.70;;;;;;10036975;28;20122;-66
